sensor_id;sensor_type;location;lat;lon;timestamp;P1;durP1;ratioP1;P2;durP2;ratioP2
80707;SDS011;70222;49.204;-122.940;2023-06-10T00:00:41;5.68;;;4.15;;
80707;SDS011;70222;49.204;-122.940;2023-06-10T00:03:07;7.50;;;4.53;;
80707;SDS011;70222;49.204;-122.940;2023-06-10T00:05:34;6.30;;;4.00;;
80707;SDS011;70222;49.204;-122.940;2023-06-10T00:08:01;6.00;;;4.30;;
80707;SDS011;70222;49.204;-122.940;2023-06-10T00:10:35;7.25;;;4.65;;
80707;SDS011;70222;49.204;-122.940;2023-06-10T00:13:05;6.13;;;3.83;;
80707;SDS011;70222;49.204;-122.940;2023-06-10T00:15:36;6.45;;;4.03;;
80707;SDS011;70222;49.204;-122.940;2023-06-10T00:18:03;6.05;;;4.07;;
80707;SDS011;70222;49.204;-122.940;2023-06-10T00:20:30;6.43;;;3.97;;
80707;SDS011;70222;49.204;-122.940;2023-06-10T00:22:57;7.35;;;4.63;;
80707;SDS011;70222;49.204;-122.940;2023-06-10T00:25:24;6.20;;;4.22;;
80707;SDS011;70222;49.204;-122.940;2023-06-10T00:27:51;7.00;;;3.88;;
80707;SDS011;70222;49.204;-122.940;2023-06-10T00:30:17;7.28;;;4.43;;
80707;SDS011;70222;49.204;-122.940;2023-06-10T00:32:43;6.20;;;3.70;;
80707;SDS011;70222;49.204;-122.940;2023-06-10T00:35:09;5.93;;;3.92;;
80707;SDS011;70222;49.204;-122.940;2023-06-10T00:37:35;8.15;;;4.35;;
80707;SDS011;70222;49.204;-122.940;2023-06-10T00:43:23;6.90;;;4.00;;
80707;SDS011;70222;49.204;-122.940;2023-06-10T00:45:50;6.68;;;4.20;;
80707;SDS011;70222;49.204;-122.940;2023-06-10T00:48:17;6.38;;;4.00;;
80707;SDS011;70222;49.204;-122.940;2023-06-10T00:50:44;8.55;;;5.72;;
80707;SDS011;70222;49.204;-122.940;2023-06-10T00:53:11;8.25;;;5.28;;
80707;SDS011;70222;49.204;-122.940;2023-06-10T00:55:38;15.90;;;9.18;;
80707;SDS011;70222;49.204;-122.940;2023-06-10T00:58:04;8.77;;;5.45;;
80707;SDS011;70222;49.204;-122.940;2023-06-10T01:00:31;8.18;;;4.50;;
80707;SDS011;70222;49.204;-122.940;2023-06-10T01:02:57;10.18;;;5.90;;
80707;SDS011;70222;49.204;-122.940;2023-06-10T01:05:23;10.50;;;4.97;;
80707;SDS011;70222;49.204;-122.940;2023-06-10T01:07:56;9.75;;;5.88;;
80707;SDS011;70222;49.204;-122.940;2023-06-10T01:10:53;7.45;;;4.45;;
80707;SDS011;70222;49.204;-122.940;2023-06-10T01:13:23;11.10;;;5.75;;
80707;SDS011;70222;49.204;-122.940;2023-06-10T01:15:54;11.55;;;5.20;;
80707;SDS011;70222;49.204;-122.940;2023-06-10T01:18:21;12.55;;;5.78;;
80707;SDS011;70222;49.204;-122.940;2023-06-10T01:20:47;11.07;;;5.80;;
80707;SDS011;70222;49.204;-122.940;2023-06-10T01:23:14;9.25;;;5.50;;
80707;SDS011;70222;49.204;-122.940;2023-06-10T01:25:43;10.07;;;5.93;;
80707;SDS011;70222;49.204;-122.940;2023-06-10T01:28:17;11.10;;;6.00;;
80707;SDS011;70222;49.204;-122.940;2023-06-10T01:33:21;9.43;;;5.90;;
80707;SDS011;70222;49.204;-122.940;2023-06-10T01:35:53;11.65;;;6.40;;
80707;SDS011;70222;49.204;-122.940;2023-06-10T01:38:20;8.75;;;5.40;;
80707;SDS011;70222;49.204;-122.940;2023-06-10T01:40:46;7.57;;;5.45;;
80707;SDS011;70222;49.204;-122.940;2023-06-10T01:43:14;11.23;;;6.10;;
80707;SDS011;70222;49.204;-122.940;2023-06-10T01:45:40;10.63;;;5.70;;
80707;SDS011;70222;49.204;-122.940;2023-06-10T01:48:06;7.13;;;5.50;;
80707;SDS011;70222;49.204;-122.940;2023-06-10T01:50:32;10.10;;;6.05;;
80707;SDS011;70222;49.204;-122.940;2023-06-10T01:52:59;9.27;;;4.82;;
80707;SDS011;70222;49.204;-122.940;2023-06-10T01:55:25;10.68;;;5.70;;
80707;SDS011;70222;49.204;-122.940;2023-06-10T01:57:51;8.60;;;5.70;;
80707;SDS011;70222;49.204;-122.940;2023-06-10T02:00:17;8.15;;;5.18;;
80707;SDS011;70222;49.204;-122.940;2023-06-10T02:02:43;10.68;;;6.47;;
80707;SDS011;70222;49.204;-122.940;2023-06-10T02:05:10;9.23;;;6.50;;
80707;SDS011;70222;49.204;-122.940;2023-06-10T02:07:36;8.68;;;6.00;;
80707;SDS011;70222;49.204;-122.940;2023-06-10T02:10:04;17.42;;;10.77;;
80707;SDS011;70222;49.204;-122.940;2023-06-10T02:12:30;18.40;;;11.73;;
80707;SDS011;70222;49.204;-122.940;2023-06-10T02:14:56;18.30;;;10.85;;
80707;SDS011;70222;49.204;-122.940;2023-06-10T02:17:23;12.75;;;7.53;;
80707;SDS011;70222;49.204;-122.940;2023-06-10T02:19:49;9.43;;;5.85;;
80707;SDS011;70222;49.204;-122.940;2023-06-10T02:22:20;12.57;;;5.55;;
80707;SDS011;70222;49.204;-122.940;2023-06-10T02:24:46;11.10;;;6.13;;
80707;SDS011;70222;49.204;-122.940;2023-06-10T02:27:12;9.95;;;5.68;;
80707;SDS011;70222;49.204;-122.940;2023-06-10T02:29:38;7.97;;;5.13;;
80707;SDS011;70222;49.204;-122.940;2023-06-10T02:32:06;9.18;;;4.85;;
80707;SDS011;70222;49.204;-122.940;2023-06-10T02:34:32;8.00;;;5.03;;
80707;SDS011;70222;49.204;-122.940;2023-06-10T02:36:59;7.30;;;4.93;;
80707;SDS011;70222;49.204;-122.940;2023-06-10T02:39:26;7.95;;;4.93;;
80707;SDS011;70222;49.204;-122.940;2023-06-10T02:41:53;7.32;;;5.00;;
80707;SDS011;70222;49.204;-122.940;2023-06-10T02:44:19;9.02;;;5.20;;
80707;SDS011;70222;49.204;-122.940;2023-06-10T02:46:45;8.02;;;5.18;;
80707;SDS011;70222;49.204;-122.940;2023-06-10T02:49:11;8.88;;;5.60;;
80707;SDS011;70222;49.204;-122.940;2023-06-10T02:51:38;8.70;;;5.47;;
80707;SDS011;70222;49.204;-122.940;2023-06-10T02:54:04;8.85;;;5.60;;
80707;SDS011;70222;49.204;-122.940;2023-06-10T02:56:30;10.25;;;5.70;;
80707;SDS011;70222;49.204;-122.940;2023-06-10T02:58:58;10.45;;;5.63;;
80707;SDS011;70222;49.204;-122.940;2023-06-10T03:01:24;12.05;;;6.55;;
80707;SDS011;70222;49.204;-122.940;2023-06-10T03:03:50;10.35;;;5.78;;
80707;SDS011;70222;49.204;-122.940;2023-06-10T03:06:18;13.98;;;7.22;;
80707;SDS011;70222;49.204;-122.940;2023-06-10T03:08:44;12.80;;;6.15;;
80707;SDS011;70222;49.204;-122.940;2023-06-10T03:11:13;9.43;;;6.10;;
80707;SDS011;70222;49.204;-122.940;2023-06-10T03:13:39;8.40;;;5.50;;
80707;SDS011;70222;49.204;-122.940;2023-06-10T03:16:05;11.05;;;5.95;;
80707;SDS011;70222;49.204;-122.940;2023-06-10T03:18:33;10.57;;;6.63;;
80707;SDS011;70222;49.204;-122.940;2023-06-10T03:20:59;9.30;;;5.18;;
80707;SDS011;70222;49.204;-122.940;2023-06-10T03:23:25;9.00;;;4.88;;
80707;SDS011;70222;49.204;-122.940;2023-06-10T03:25:52;9.07;;;5.18;;
80707;SDS011;70222;49.204;-122.940;2023-06-10T03:28:20;8.27;;;5.43;;
80707;SDS011;70222;49.204;-122.940;2023-06-10T03:30:47;8.07;;;5.50;;
80707;SDS011;70222;49.204;-122.940;2023-06-10T03:33:13;10.13;;;5.70;;
80707;SDS011;70222;49.204;-122.940;2023-06-10T03:35:40;9.98;;;6.15;;
80707;SDS011;70222;49.204;-122.940;2023-06-10T03:38:06;10.38;;;5.78;;
80707;SDS011;70222;49.204;-122.940;2023-06-10T03:40:33;8.10;;;5.63;;
80707;SDS011;70222;49.204;-122.940;2023-06-10T03:43:00;9.70;;;5.57;;
80707;SDS011;70222;49.204;-122.940;2023-06-10T03:47:53;9.90;;;5.60;;
80707;SDS011;70222;49.204;-122.940;2023-06-10T03:50:20;7.97;;;5.50;;
80707;SDS011;70222;49.204;-122.940;2023-06-10T03:52:48;8.80;;;5.32;;
80707;SDS011;70222;49.204;-122.940;2023-06-10T03:55:14;8.90;;;5.38;;
80707;SDS011;70222;49.204;-122.940;2023-06-10T04:00:08;7.93;;;4.72;;
80707;SDS011;70222;49.204;-122.940;2023-06-10T04:02:37;10.50;;;5.32;;
80707;SDS011;70222;49.204;-122.940;2023-06-10T04:07:39;8.30;;;4.70;;
80707;SDS011;70222;49.204;-122.940;2023-06-10T04:10:08;8.23;;;5.32;;
80707;SDS011;70222;49.204;-122.940;2023-06-10T04:12:35;9.57;;;5.03;;
80707;SDS011;70222;49.204;-122.940;2023-06-10T04:15:05;7.53;;;4.68;;
80707;SDS011;70222;49.204;-122.940;2023-06-10T04:17:31;9.50;;;6.00;;
80707;SDS011;70222;49.204;-122.940;2023-06-10T04:19:57;8.73;;;5.68;;
80707;SDS011;70222;49.204;-122.940;2023-06-10T04:22:23;8.05;;;4.32;;
80707;SDS011;70222;49.204;-122.940;2023-06-10T04:24:51;9.70;;;5.38;;
80707;SDS011;70222;49.204;-122.940;2023-06-10T04:27:17;9.60;;;5.25;;
80707;SDS011;70222;49.204;-122.940;2023-06-10T04:29:43;9.68;;;5.18;;
80707;SDS011;70222;49.204;-122.940;2023-06-10T04:32:09;9.63;;;5.55;;
80707;SDS011;70222;49.204;-122.940;2023-06-10T04:34:36;8.73;;;4.75;;
80707;SDS011;70222;49.204;-122.940;2023-06-10T04:37:04;12.07;;;6.07;;
80707;SDS011;70222;49.204;-122.940;2023-06-10T04:39:30;12.88;;;4.93;;
80707;SDS011;70222;49.204;-122.940;2023-06-10T04:41:57;13.60;;;7.32;;
80707;SDS011;70222;49.204;-122.940;2023-06-10T04:44:23;11.30;;;7.22;;
80707;SDS011;70222;49.204;-122.940;2023-06-10T04:46:50;11.25;;;6.90;;
80707;SDS011;70222;49.204;-122.940;2023-06-10T04:49:16;14.43;;;7.55;;
80707;SDS011;70222;49.204;-122.940;2023-06-10T04:51:42;11.57;;;6.75;;
80707;SDS011;70222;49.204;-122.940;2023-06-10T04:54:08;10.15;;;6.18;;
80707;SDS011;70222;49.204;-122.940;2023-06-10T04:56:34;14.35;;;8.32;;
80707;SDS011;70222;49.204;-122.940;2023-06-10T04:59:00;17.45;;;9.10;;
80707;SDS011;70222;49.204;-122.940;2023-06-10T05:01:26;13.35;;;8.15;;
80707;SDS011;70222;49.204;-122.940;2023-06-10T05:03:53;12.30;;;7.35;;
80707;SDS011;70222;49.204;-122.940;2023-06-10T05:06:19;13.02;;;7.97;;
80707;SDS011;70222;49.204;-122.940;2023-06-10T05:08:45;11.15;;;6.68;;
80707;SDS011;70222;49.204;-122.940;2023-06-10T05:11:11;13.88;;;7.13;;
80707;SDS011;70222;49.204;-122.940;2023-06-10T05:13:37;9.82;;;6.70;;
80707;SDS011;70222;49.204;-122.940;2023-06-10T05:16:05;10.82;;;6.25;;
80707;SDS011;70222;49.204;-122.940;2023-06-10T05:18:32;12.15;;;7.55;;
80707;SDS011;70222;49.204;-122.940;2023-06-10T05:20:58;9.70;;;6.55;;
80707;SDS011;70222;49.204;-122.940;2023-06-10T05:23:25;11.05;;;6.43;;
80707;SDS011;70222;49.204;-122.940;2023-06-10T05:25:51;8.70;;;5.53;;
80707;SDS011;70222;49.204;-122.940;2023-06-10T05:28:17;9.82;;;5.50;;
80707;SDS011;70222;49.204;-122.940;2023-06-10T05:30:43;11.20;;;5.28;;
80707;SDS011;70222;49.204;-122.940;2023-06-10T05:33:09;7.45;;;4.93;;
80707;SDS011;70222;49.204;-122.940;2023-06-10T05:35:35;9.75;;;5.53;;
80707;SDS011;70222;49.204;-122.940;2023-06-10T05:38:02;8.00;;;4.50;;
80707;SDS011;70222;49.204;-122.940;2023-06-10T05:40:28;8.20;;;4.93;;
80707;SDS011;70222;49.204;-122.940;2023-06-10T05:42:54;10.05;;;4.60;;
80707;SDS011;70222;49.204;-122.940;2023-06-10T05:45:20;7.00;;;4.47;;
80707;SDS011;70222;49.204;-122.940;2023-06-10T05:47:46;7.07;;;4.65;;
80707;SDS011;70222;49.204;-122.940;2023-06-10T05:50:13;7.55;;;4.28;;
80707;SDS011;70222;49.204;-122.940;2023-06-10T05:52:39;7.88;;;4.47;;
80707;SDS011;70222;49.204;-122.940;2023-06-10T05:55:08;7.97;;;4.35;;
80707;SDS011;70222;49.204;-122.940;2023-06-10T05:57:34;7.55;;;4.68;;
80707;SDS011;70222;49.204;-122.940;2023-06-10T06:05:48;8.52;;;4.72;;
80707;SDS011;70222;49.204;-122.940;2023-06-10T06:08:14;7.32;;;4.63;;
80707;SDS011;70222;49.204;-122.940;2023-06-10T06:10:44;9.55;;;5.30;;
80707;SDS011;70222;49.204;-122.940;2023-06-10T06:13:11;7.00;;;4.80;;
80707;SDS011;70222;49.204;-122.940;2023-06-10T06:15:37;7.25;;;4.13;;
80707;SDS011;70222;49.204;-122.940;2023-06-10T06:18:03;5.65;;;3.90;;
80707;SDS011;70222;49.204;-122.940;2023-06-10T06:20:29;5.78;;;4.15;;
80707;SDS011;70222;49.204;-122.940;2023-06-10T06:22:55;6.13;;;4.10;;
80707;SDS011;70222;49.204;-122.940;2023-06-10T06:25:21;6.13;;;3.45;;
80707;SDS011;70222;49.204;-122.940;2023-06-10T06:27:48;6.65;;;3.42;;
80707;SDS011;70222;49.204;-122.940;2023-06-10T06:30:14;6.43;;;3.35;;
80707;SDS011;70222;49.204;-122.940;2023-06-10T06:32:40;6.72;;;3.38;;
80707;SDS011;70222;49.204;-122.940;2023-06-10T06:35:07;5.43;;;3.05;;
80707;SDS011;70222;49.204;-122.940;2023-06-10T06:37:33;6.15;;;3.40;;
80707;SDS011;70222;49.204;-122.940;2023-06-10T06:40:00;5.38;;;3.03;;
80707;SDS011;70222;49.204;-122.940;2023-06-10T06:42:26;4.55;;;2.55;;
80707;SDS011;70222;49.204;-122.940;2023-06-10T06:44:52;4.75;;;2.58;;
80707;SDS011;70222;49.204;-122.940;2023-06-10T06:47:18;5.82;;;3.45;;
80707;SDS011;70222;49.204;-122.940;2023-06-10T06:49:45;5.20;;;2.78;;
80707;SDS011;70222;49.204;-122.940;2023-06-10T06:52:12;5.35;;;3.63;;
80707;SDS011;70222;49.204;-122.940;2023-06-10T06:54:39;5.32;;;3.03;;
80707;SDS011;70222;49.204;-122.940;2023-06-10T06:57:05;4.25;;;2.42;;
80707;SDS011;70222;49.204;-122.940;2023-06-10T06:59:32;4.60;;;2.60;;
80707;SDS011;70222;49.204;-122.940;2023-06-10T07:01:58;4.28;;;2.78;;
80707;SDS011;70222;49.204;-122.940;2023-06-10T07:04:24;4.93;;;3.20;;
80707;SDS011;70222;49.204;-122.940;2023-06-10T07:06:51;5.05;;;2.90;;
80707;SDS011;70222;49.204;-122.940;2023-06-10T07:09:17;5.20;;;2.95;;
80707;SDS011;70222;49.204;-122.940;2023-06-10T07:11:43;5.18;;;3.00;;
80707;SDS011;70222;49.204;-122.940;2023-06-10T07:14:09;4.53;;;2.80;;
80707;SDS011;70222;49.204;-122.940;2023-06-10T07:16:35;5.55;;;2.80;;
80707;SDS011;70222;49.204;-122.940;2023-06-10T07:19:01;6.35;;;3.30;;
80707;SDS011;70222;49.204;-122.940;2023-06-10T07:21:27;4.95;;;2.75;;
80707;SDS011;70222;49.204;-122.940;2023-06-10T07:23:55;3.85;;;2.28;;
80707;SDS011;70222;49.204;-122.940;2023-06-10T07:26:24;3.65;;;2.25;;
80707;SDS011;70222;49.204;-122.940;2023-06-10T07:28:51;4.28;;;2.22;;
80707;SDS011;70222;49.204;-122.940;2023-06-10T07:31:17;4.40;;;2.55;;
80707;SDS011;70222;49.204;-122.940;2023-06-10T07:33:43;4.78;;;2.70;;
80707;SDS011;70222;49.204;-122.940;2023-06-10T07:36:09;5.55;;;2.88;;
80707;SDS011;70222;49.204;-122.940;2023-06-10T07:38:35;4.07;;;2.50;;
80707;SDS011;70222;49.204;-122.940;2023-06-10T07:41:02;5.60;;;2.88;;
80707;SDS011;70222;49.204;-122.940;2023-06-10T07:43:28;6.55;;;3.20;;
80707;SDS011;70222;49.204;-122.940;2023-06-10T07:45:54;5.28;;;2.95;;
80707;SDS011;70222;49.204;-122.940;2023-06-10T07:48:20;4.93;;;2.78;;
80707;SDS011;70222;49.204;-122.940;2023-06-10T07:50:47;4.95;;;2.70;;
80707;SDS011;70222;49.204;-122.940;2023-06-10T07:53:13;6.22;;;2.90;;
80707;SDS011;70222;49.204;-122.940;2023-06-10T07:55:39;5.32;;;2.80;;
80707;SDS011;70222;49.204;-122.940;2023-06-10T07:58:05;5.22;;;3.08;;
80707;SDS011;70222;49.204;-122.940;2023-06-10T08:00:31;5.15;;;3.00;;
80707;SDS011;70222;49.204;-122.940;2023-06-10T08:02:57;5.85;;;2.97;;
80707;SDS011;70222;49.204;-122.940;2023-06-10T08:05:23;4.72;;;2.90;;
80707;SDS011;70222;49.204;-122.940;2023-06-10T08:07:49;5.85;;;2.63;;
80707;SDS011;70222;49.204;-122.940;2023-06-10T08:10:15;4.53;;;2.70;;
80707;SDS011;70222;49.204;-122.940;2023-06-10T08:12:41;4.60;;;2.55;;
80707;SDS011;70222;49.204;-122.940;2023-06-10T08:15:08;4.35;;;2.42;;
80707;SDS011;70222;49.204;-122.940;2023-06-10T08:17:34;4.57;;;2.47;;
80707;SDS011;70222;49.204;-122.940;2023-06-10T08:20:00;4.30;;;2.30;;
80707;SDS011;70222;49.204;-122.940;2023-06-10T08:22:27;4.38;;;2.83;;
80707;SDS011;70222;49.204;-122.940;2023-06-10T08:24:54;3.22;;;2.53;;
80707;SDS011;70222;49.204;-122.940;2023-06-10T08:27:21;5.45;;;2.60;;
80707;SDS011;70222;49.204;-122.940;2023-06-10T08:33:09;3.88;;;2.40;;
80707;SDS011;70222;49.204;-122.940;2023-06-10T08:35:35;3.70;;;2.28;;
80707;SDS011;70222;49.204;-122.940;2023-06-10T08:38:01;4.30;;;2.35;;
80707;SDS011;70222;49.204;-122.940;2023-06-10T08:40:27;4.72;;;2.80;;
80707;SDS011;70222;49.204;-122.940;2023-06-10T08:43:00;4.95;;;2.55;;
80707;SDS011;70222;49.204;-122.940;2023-06-10T08:45:27;4.72;;;2.42;;
80707;SDS011;70222;49.204;-122.940;2023-06-10T08:48:00;5.13;;;2.90;;
80707;SDS011;70222;49.204;-122.940;2023-06-10T08:50:35;3.95;;;2.53;;
80707;SDS011;70222;49.204;-122.940;2023-06-10T08:53:03;4.82;;;2.83;;
80707;SDS011;70222;49.204;-122.940;2023-06-10T08:55:41;3.63;;;2.53;;
80707;SDS011;70222;49.204;-122.940;2023-06-10T08:58:08;3.97;;;2.28;;
80707;SDS011;70222;49.204;-122.940;2023-06-10T09:00:35;3.95;;;2.33;;
80707;SDS011;70222;49.204;-122.940;2023-06-10T09:03:02;3.25;;;2.40;;
80707;SDS011;70222;49.204;-122.940;2023-06-10T09:05:30;5.07;;;2.33;;
80707;SDS011;70222;49.204;-122.940;2023-06-10T09:07:59;3.95;;;2.20;;
80707;SDS011;70222;49.204;-122.940;2023-06-10T09:10:26;4.32;;;2.40;;
80707;SDS011;70222;49.204;-122.940;2023-06-10T09:12:52;4.55;;;2.28;;
80707;SDS011;70222;49.204;-122.940;2023-06-10T09:15:19;3.85;;;2.38;;
80707;SDS011;70222;49.204;-122.940;2023-06-10T09:17:45;3.83;;;2.30;;
80707;SDS011;70222;49.204;-122.940;2023-06-10T09:20:11;4.35;;;2.88;;
80707;SDS011;70222;49.204;-122.940;2023-06-10T09:22:37;3.63;;;2.40;;
80707;SDS011;70222;49.204;-122.940;2023-06-10T09:25:08;3.08;;;2.15;;
80707;SDS011;70222;49.204;-122.940;2023-06-10T09:27:49;3.90;;;2.58;;
80707;SDS011;70222;49.204;-122.940;2023-06-10T09:30:30;3.88;;;2.25;;
80707;SDS011;70222;49.204;-122.940;2023-06-10T09:33:03;4.22;;;2.35;;
80707;SDS011;70222;49.204;-122.940;2023-06-10T09:35:35;3.63;;;2.40;;
80707;SDS011;70222;49.204;-122.940;2023-06-10T09:38:01;3.67;;;2.50;;
80707;SDS011;70222;49.204;-122.940;2023-06-10T09:40:27;4.85;;;2.53;;
80707;SDS011;70222;49.204;-122.940;2023-06-10T09:42:54;4.32;;;2.55;;
80707;SDS011;70222;49.204;-122.940;2023-06-10T09:45:22;3.20;;;2.28;;
80707;SDS011;70222;49.204;-122.940;2023-06-10T09:47:52;3.50;;;2.40;;
80707;SDS011;70222;49.204;-122.940;2023-06-10T09:50:19;2.72;;;1.75;;
80707;SDS011;70222;49.204;-122.940;2023-06-10T09:52:45;3.25;;;2.15;;
80707;SDS011;70222;49.204;-122.940;2023-06-10T09:55:13;3.08;;;2.00;;
80707;SDS011;70222;49.204;-122.940;2023-06-10T09:57:39;4.28;;;2.30;;
80707;SDS011;70222;49.204;-122.940;2023-06-10T10:00:07;3.97;;;2.00;;
80707;SDS011;70222;49.204;-122.940;2023-06-10T10:02:52;3.55;;;2.17;;
80707;SDS011;70222;49.204;-122.940;2023-06-10T10:05:19;3.15;;;2.17;;
80707;SDS011;70222;49.204;-122.940;2023-06-10T10:07:47;3.40;;;2.10;;
80707;SDS011;70222;49.204;-122.940;2023-06-10T10:10:14;3.72;;;2.10;;
80707;SDS011;70222;49.204;-122.940;2023-06-10T10:15:10;3.70;;;2.28;;
80707;SDS011;70222;49.204;-122.940;2023-06-10T10:17:38;4.28;;;2.50;;
80707;SDS011;70222;49.204;-122.940;2023-06-10T10:20:06;3.28;;;2.20;;
80707;SDS011;70222;49.204;-122.940;2023-06-10T10:22:40;3.47;;;2.40;;
80707;SDS011;70222;49.204;-122.940;2023-06-10T10:25:15;4.07;;;2.47;;
80707;SDS011;70222;49.204;-122.940;2023-06-10T10:30:18;4.32;;;2.92;;
80707;SDS011;70222;49.204;-122.940;2023-06-10T10:33:00;3.70;;;2.70;;
80707;SDS011;70222;49.204;-122.940;2023-06-10T10:35:31;3.25;;;2.22;;
80707;SDS011;70222;49.204;-122.940;2023-06-10T10:37:58;5.78;;;2.67;;
80707;SDS011;70222;49.204;-122.940;2023-06-10T10:40:26;5.80;;;3.00;;
80707;SDS011;70222;49.204;-122.940;2023-06-10T10:42:55;4.93;;;3.13;;
80707;SDS011;70222;49.204;-122.940;2023-06-10T10:45:22;4.97;;;2.83;;
80707;SDS011;70222;49.204;-122.940;2023-06-10T10:47:52;4.53;;;2.83;;
80707;SDS011;70222;49.204;-122.940;2023-06-10T10:50:20;6.80;;;2.90;;
80707;SDS011;70222;49.204;-122.940;2023-06-10T10:52:54;4.55;;;3.00;;
80707;SDS011;70222;49.204;-122.940;2023-06-10T10:55:26;4.63;;;2.90;;
80707;SDS011;70222;49.204;-122.940;2023-06-10T11:00:31;4.47;;;3.40;;
80707;SDS011;70222;49.204;-122.940;2023-06-10T11:05:35;5.15;;;3.40;;
80707;SDS011;70222;49.204;-122.940;2023-06-10T11:08:13;5.07;;;3.22;;
80707;SDS011;70222;49.204;-122.940;2023-06-10T11:10:40;6.03;;;3.83;;
80707;SDS011;70222;49.204;-122.940;2023-06-10T11:13:08;6.20;;;4.07;;
80707;SDS011;70222;49.204;-122.940;2023-06-10T11:15:39;6.95;;;4.43;;
80707;SDS011;70222;49.204;-122.940;2023-06-10T11:21:10;8.35;;;5.13;;
80707;SDS011;70222;49.204;-122.940;2023-06-10T11:23:40;8.20;;;5.20;;
80707;SDS011;70222;49.204;-122.940;2023-06-10T11:26:10;9.35;;;5.78;;
80707;SDS011;70222;49.204;-122.940;2023-06-10T11:28:40;8.73;;;5.28;;
80707;SDS011;70222;49.204;-122.940;2023-06-10T11:33:57;9.57;;;5.88;;
80707;SDS011;70222;49.204;-122.940;2023-06-10T11:36:24;12.68;;;7.35;;
80707;SDS011;70222;49.204;-122.940;2023-06-10T11:38:53;12.93;;;6.95;;
80707;SDS011;70222;49.204;-122.940;2023-06-10T11:41:23;10.43;;;6.25;;
80707;SDS011;70222;49.204;-122.940;2023-06-10T11:43:53;9.80;;;5.63;;
80707;SDS011;70222;49.204;-122.940;2023-06-10T11:46:22;9.75;;;5.88;;
80707;SDS011;70222;49.204;-122.940;2023-06-10T11:48:49;8.73;;;5.72;;
80707;SDS011;70222;49.204;-122.940;2023-06-10T11:51:16;9.98;;;5.85;;
80707;SDS011;70222;49.204;-122.940;2023-06-10T11:53:45;8.77;;;5.85;;
80707;SDS011;70222;49.204;-122.940;2023-06-10T11:56:27;9.60;;;5.88;;
80707;SDS011;70222;49.204;-122.940;2023-06-10T12:01:36;12.05;;;6.63;;
80707;SDS011;70222;49.204;-122.940;2023-06-10T12:04:04;12.13;;;6.95;;
80707;SDS011;70222;49.204;-122.940;2023-06-10T12:06:49;12.00;;;6.28;;
80707;SDS011;70222;49.204;-122.940;2023-06-10T12:09:23;9.55;;;5.70;;
80707;SDS011;70222;49.204;-122.940;2023-06-10T12:11:54;11.88;;;6.88;;
80707;SDS011;70222;49.204;-122.940;2023-06-10T12:17:42;10.27;;;6.47;;
80707;SDS011;70222;49.204;-122.940;2023-06-10T12:20:08;10.68;;;6.72;;
80707;SDS011;70222;49.204;-122.940;2023-06-10T12:22:50;10.57;;;5.90;;
80707;SDS011;70222;49.204;-122.940;2023-06-10T12:25:16;9.88;;;6.10;;
80707;SDS011;70222;49.204;-122.940;2023-06-10T12:27:51;11.73;;;6.35;;
80707;SDS011;70222;49.204;-122.940;2023-06-10T12:30:21;8.98;;;5.78;;
80707;SDS011;70222;49.204;-122.940;2023-06-10T12:32:49;10.02;;;6.25;;
80707;SDS011;70222;49.204;-122.940;2023-06-10T12:35:17;9.15;;;6.05;;
80707;SDS011;70222;49.204;-122.940;2023-06-10T12:37:54;8.70;;;5.57;;
80707;SDS011;70222;49.204;-122.940;2023-06-10T12:40:25;8.95;;;5.30;;
80707;SDS011;70222;49.204;-122.940;2023-06-10T12:42:53;11.57;;;5.72;;
80707;SDS011;70222;49.204;-122.940;2023-06-10T12:45:26;10.15;;;5.47;;
80707;SDS011;70222;49.204;-122.940;2023-06-10T12:50:35;9.85;;;5.68;;
80707;SDS011;70222;49.204;-122.940;2023-06-10T12:53:09;7.55;;;5.10;;
80707;SDS011;70222;49.204;-122.940;2023-06-10T12:55:39;8.98;;;5.40;;
80707;SDS011;70222;49.204;-122.940;2023-06-10T12:58:05;8.45;;;6.10;;
80707;SDS011;70222;49.204;-122.940;2023-06-10T13:00:31;8.15;;;4.72;;
80707;SDS011;70222;49.204;-122.940;2023-06-10T13:03:00;7.50;;;4.60;;
80707;SDS011;70222;49.204;-122.940;2023-06-10T13:05:27;7.63;;;5.28;;
80707;SDS011;70222;49.204;-122.940;2023-06-10T13:07:54;7.55;;;4.80;;
80707;SDS011;70222;49.204;-122.940;2023-06-10T13:10:21;7.40;;;4.40;;
80707;SDS011;70222;49.204;-122.940;2023-06-10T13:12:47;7.53;;;4.47;;
80707;SDS011;70222;49.204;-122.940;2023-06-10T13:15:14;7.30;;;4.43;;
80707;SDS011;70222;49.204;-122.940;2023-06-10T13:17:41;7.65;;;4.90;;
80707;SDS011;70222;49.204;-122.940;2023-06-10T13:20:08;6.35;;;4.35;;
80707;SDS011;70222;49.204;-122.940;2023-06-10T13:22:35;6.32;;;4.07;;
80707;SDS011;70222;49.204;-122.940;2023-06-10T13:25:05;10.10;;;5.20;;
80707;SDS011;70222;49.204;-122.940;2023-06-10T13:27:34;7.15;;;4.22;;
80707;SDS011;70222;49.204;-122.940;2023-06-10T13:30:07;6.82;;;3.95;;
80707;SDS011;70222;49.204;-122.940;2023-06-10T13:32:34;7.45;;;4.50;;
80707;SDS011;70222;49.204;-122.940;2023-06-10T13:35:00;6.18;;;4.05;;
80707;SDS011;70222;49.204;-122.940;2023-06-10T13:37:27;7.43;;;3.97;;
80707;SDS011;70222;49.204;-122.940;2023-06-10T13:39:53;5.65;;;3.83;;
80707;SDS011;70222;49.204;-122.940;2023-06-10T13:42:19;5.28;;;3.35;;
80707;SDS011;70222;49.204;-122.940;2023-06-10T13:44:46;5.35;;;3.70;;
80707;SDS011;70222;49.204;-122.940;2023-06-10T13:47:16;4.35;;;3.03;;
80707;SDS011;70222;49.204;-122.940;2023-06-10T13:49:42;5.00;;;3.00;;
80707;SDS011;70222;49.204;-122.940;2023-06-10T13:52:08;4.30;;;2.90;;
80707;SDS011;70222;49.204;-122.940;2023-06-10T13:54:35;4.47;;;2.95;;
80707;SDS011;70222;49.204;-122.940;2023-06-10T13:57:04;4.35;;;3.00;;
80707;SDS011;70222;49.204;-122.940;2023-06-10T14:02:51;5.78;;;3.55;;
80707;SDS011;70222;49.204;-122.940;2023-06-10T14:05:17;7.30;;;4.20;;
80707;SDS011;70222;49.204;-122.940;2023-06-10T14:07:44;5.28;;;3.95;;
80707;SDS011;70222;49.204;-122.940;2023-06-10T14:10:10;6.50;;;3.72;;
80707;SDS011;70222;49.204;-122.940;2023-06-10T14:12:36;5.82;;;3.63;;
80707;SDS011;70222;49.204;-122.940;2023-06-10T14:15:02;6.85;;;3.97;;
80707;SDS011;70222;49.204;-122.940;2023-06-10T14:17:29;5.03;;;3.55;;
80707;SDS011;70222;49.204;-122.940;2023-06-10T14:19:55;5.75;;;3.53;;
80707;SDS011;70222;49.204;-122.940;2023-06-10T14:22:21;6.20;;;3.78;;
80707;SDS011;70222;49.204;-122.940;2023-06-10T14:24:47;6.10;;;3.53;;
80707;SDS011;70222;49.204;-122.940;2023-06-10T14:27:13;5.72;;;3.83;;
80707;SDS011;70222;49.204;-122.940;2023-06-10T14:29:39;5.28;;;3.53;;
80707;SDS011;70222;49.204;-122.940;2023-06-10T14:32:06;5.50;;;3.75;;
80707;SDS011;70222;49.204;-122.940;2023-06-10T14:34:32;5.65;;;3.80;;
80707;SDS011;70222;49.204;-122.940;2023-06-10T14:37:01;6.60;;;4.18;;
80707;SDS011;70222;49.204;-122.940;2023-06-10T14:39:29;5.80;;;4.03;;
80707;SDS011;70222;49.204;-122.940;2023-06-10T14:41:55;5.78;;;4.20;;
80707;SDS011;70222;49.204;-122.940;2023-06-10T14:44:21;6.43;;;4.20;;
80707;SDS011;70222;49.204;-122.940;2023-06-10T14:46:47;6.47;;;4.40;;
80707;SDS011;70222;49.204;-122.940;2023-06-10T14:49:13;6.78;;;4.20;;
80707;SDS011;70222;49.204;-122.940;2023-06-10T14:51:39;6.75;;;4.20;;
80707;SDS011;70222;49.204;-122.940;2023-06-10T14:54:05;5.80;;;3.55;;
80707;SDS011;70222;49.204;-122.940;2023-06-10T14:56:31;6.38;;;3.53;;
80707;SDS011;70222;49.204;-122.940;2023-06-10T14:58:57;6.10;;;3.83;;